Time;durP1;ratioP1;P1;durP2;ratioP2;P2;SDS_P1;SDS_P2;PMS_P1;PMS_P2;Temp;Humidity;BMP_temperature;BMP_pressure;BME280_temperature;BME280_humidity;BME280_pressure;Samples;Min_cycle;Max_cycle;Signal;HPM_P1;HPM_P2
2022/11/30 00:00:52;;;;;;;;;;;;;;;21.44;64.40;99952.66;7305284;19;129616;-37
2022/11/30 00:03:18;;;;;;;46.20;5.82;;;;;;;21.45;62.88;99950.88;7305308;19;129189;-38
2022/11/30 00:05:43;;;;;;;57.30;6.77;;;;;;;21.46;62.95;99950.75;7305103;19;128922;-37
2022/11/30 00:08:08;;;;;;;45.23;6.40;;;;;;;21.47;62.55;99951.59;7305200;19;129098;-38
2022/11/30 00:10:34;;;;;;;51.50;6.15;;;;;;;21.55;62.23;99949.97;7305557;19;129644;-36
2022/11/30 00:12:59;;;;;;;45.53;5.73;;;;;;;21.53;63.37;99962.38;7304344;19;129765;-37
2022/11/30 00:15:25;;;;;;;52.33;6.20;;;;;;;21.53;62.51;99956.28;7305065;19;129105;-38
2022/11/30 00:17:55;;;;;;;40.17;5.40;;;;;;;21.59;64.25;99956.59;7305678;19;129205;-37
2022/11/30 00:20:21;;;;;;;51.38;5.93;;;;;;;21.63;63.45;99952.78;7306438;19;129647;-36
2022/11/30 00:22:46;;;;;;;59.13;6.70;;;;;;;21.70;64.12;99959.13;7304555;19;130246;-37
2022/11/30 00:25:11;;;;;;;36.57;5.37;;;;;;;21.65;62.59;99960.50;7305332;19;129243;-38
2022/11/30 00:27:37;;;;;;;59.07;6.37;;;;;;;21.70;63.34;99959.13;7305009;19;130280;-35
2022/11/30 00:30:02;;;;;;;47.30;5.57;;;;;;;21.68;63.10;99961.03;7304747;19;130371;-36
2022/11/30 00:32:28;;;;;;;43.38;5.63;;;;;;;21.66;63.66;99957.75;7304104;19;129545;-38
2022/11/30 00:34:54;;;;;;;37.43;5.27;;;;;;;21.64;63.72;99970.13;7302933;19;129318;-39
2022/11/30 00:37:20;;;;;;;56.33;6.60;;;;;;;21.65;63.67;99961.31;7303801;19;130421;-38
2022/11/30 00:39:46;;;;;;;71.87;7.43;;;;;;;21.68;63.51;99958.41;7302748;19;129724;-38
2022/11/30 00:42:11;;;;;;;30.38;4.70;;;;;;;21.65;63.10;99961.31;7305895;19;128974;-37
2022/11/30 00:44:37;;;;;;;61.27;6.53;;;;;;;21.64;63.18;99951.81;7302733;19;130170;-38
2022/11/30 00:47:02;;;;;;;39.67;5.53;;;;;;;21.63;63.68;99958.00;7303623;19;130619;-36
2022/11/30 00:49:27;;;;;;;66.97;6.55;;;;;;;21.65;63.63;99966.53;7310647;19;130342;-35
2022/11/30 00:51:53;;;;;;;51.60;5.85;;;;;;;21.60;63.01;99963.47;7310527;19;130591;-39
2022/11/30 00:54:18;;;;;;;54.63;6.82;;;;;;;21.62;63.51;99961.56;7307869;19;129705;-38
2022/11/30 00:56:44;;;;;;;34.17;4.77;;;;;;;21.60;63.94;99968.72;7310512;19;130219;-35
2022/11/30 00:59:09;;;;;;;53.53;6.10;;;;;;;21.58;63.31;99975.88;7312091;19;129771;-36
2022/11/30 01:01:35;;;;;;;45.13;5.35;;;;;;;21.60;63.02;99971.31;7309340;19;131023;-36
2022/11/30 01:04:01;;;;;;;84.07;9.15;;;;;;;21.53;62.68;99962.38;7308993;19;129456;-38
2022/11/30 01:06:27;;;;;;;61.77;7.03;;;;;;;21.53;63.36;99962.38;7309893;19;129408;-39
2022/11/30 01:08:52;;;;;;;59.97;7.43;;;;;;;21.41;63.98;99946.88;7310614;19;129664;-35
2022/11/30 01:11:24;;;;;;;51.30;6.03;;;;;;;21.53;64.56;99962.38;7308540;19;129575;-37
2022/11/30 01:13:50;;;;;;;37.42;5.10;;;;;;;21.50;63.30;99967.84;7308121;19;129616;-36
2022/11/30 01:16:26;;;;;;;47.42;5.65;;;;;;;21.41;64.74;99950.31;7310425;19;130180;-35
2022/11/30 01:18:52;;;;;;;51.42;6.22;;;;;;;21.56;63.60;99972.56;7308694;19;129490;-36
2022/11/30 01:21:23;;;;;;;35.83;4.90;;;;;;;21.56;64.36;99958.66;7310767;19;129313;-37
2022/11/30 01:23:49;;;;;;;64.20;6.60;;;;;;;21.54;63.44;99961.41;7305165;19;129560;-37
2022/11/30 01:26:15;;;;;;;34.05;4.50;;;;;;;21.54;63.67;99966.63;7309895;19;130072;-35
2022/11/30 01:28:43;;;;;;;73.72;7.35;;;;;;;21.55;63.17;99965.66;7310171;19;130460;-38
2022/11/30 01:31:11;;;;;;;34.00;5.13;;;;;;;21.59;62.83;99963.63;7309648;19;129734;-38
2022/11/30 01:33:37;;;;;;;69.95;7.45;;;;;;;21.54;63.48;99964.00;7309362;19;129162;-36
2022/11/30 01:36:10;;;;;;;39.20;5.35;;;;;;;21.56;64.31;99962.09;7309495;19;129951;-37
2022/11/30 01:38:38;;;;;;;52.40;6.50;;;;;;;21.51;63.47;99959.03;7309487;19;131420;-35
2022/11/30 01:41:05;;;;;;;47.50;5.65;;;;;;;21.52;63.85;99965.91;7309737;19;129316;-37
2022/11/30 01:43:42;;;;;;;;;;;;;;;21.59;64.51;99961.00;7309663;19;128903;-34
2022/11/30 01:46:31;;;;;;;50.75;6.55;;;;;;;21.58;64.95;99962.81;7305904;19;130262;-35
2022/11/30 01:49:03;;;;;;;29.88;4.40;;;;;;;21.55;64.03;99964.84;7310628;19;130645;-38
2022/11/30 01:51:34;;;;;;;55.67;6.35;;;;;;;21.54;64.30;99965.78;7307279;19;130973;-37
2022/11/30 01:54:01;;;;;;;58.78;6.85;;;;;;;21.44;63.84;99942.22;7308343;19;129277;-35
2022/11/30 01:56:27;;;;;;;59.67;6.55;;;;;;;21.59;63.59;99967.06;7308700;19;129763;-35
2022/11/30 01:58:52;;;;;;;51.72;6.25;;;;;;;21.58;64.38;99964.59;7309367;19;129412;-36
2022/11/30 02:01:17;;;;;;;42.83;5.50;;;;;;;21.54;62.94;99965.78;7310276;19;129822;-35
2022/11/30 02:04:10;;;;;;;47.43;5.93;;;;;;;21.44;62.07;99968.38;7308879;19;129052;-34
2022/11/30 02:06:35;;;;;;;51.78;5.80;;;;;;;21.43;62.30;99961.47;7307983;19;129320;-38
2022/11/30 02:09:01;;;;;;;77.93;8.18;;;;;;;21.39;62.06;99970.53;7309033;19;129236;-37
2022/11/30 02:11:27;;;;;;;51.25;5.55;;;;;;;21.36;62.19;99965.56;7309521;19;129022;-36
2022/11/30 02:13:59;;;;;;;96.70;9.47;;;;;;;21.39;62.40;99956.63;7304914;19;129637;-35
2022/11/30 02:16:38;;;;;;;42.70;5.60;;;;;;;21.35;62.38;99963.94;7307976;19;129798;-39
2022/11/30 02:19:13;;;;;;;50.55;5.80;;;;;;;21.34;62.73;99967.47;7308398;19;129493;-38
2022/11/30 02:22:02;;;;;;;46.08;5.60;;;;;;;21.35;62.86;99969.16;7309341;19;128792;-37
2022/11/30 02:24:42;;;;;;;41.22;4.90;;;;;;;21.37;63.51;99976.88;7304136;19;129572;-38
2022/11/30 02:27:17;;;;;;;43.70;5.05;;;;;;;21.41;63.32;99973.84;7309064;19;130589;-39
2022/11/30 02:29:52;;;;;;;56.22;6.18;;;;;;;21.44;64.12;99972.75;7308205;19;130354;-36
2022/11/30 02:32:24;;;;;;;41.72;5.32;;;;;;;21.43;63.44;99969.34;7309741;19;129481;-38
2022/11/30 02:34:52;;;;;;;47.80;5.68;;;;;;;21.45;64.03;99980.47;7306013;19;129131;-36
2022/11/30 02:37:18;;;;;;;43.63;5.15;;;;;;;21.45;63.31;99977.84;7307401;19;130904;-38
2022/11/30 02:39:44;;;;;;;53.22;5.35;;;;;;;21.47;64.17;99978.56;7309587;19;129807;-39
2022/11/30 02:42:11;;;;;;;48.30;5.50;;;;;;;21.45;63.80;99975.25;7308205;19;129270;-34
2022/11/30 02:44:38;;;;;;;39.10;4.90;;;;;;;21.46;63.23;99979.53;7305619;19;129684;-37
2022/11/30 02:47:13;;;;;;;53.75;6.53;;;;;;;21.47;64.56;99972.53;7306679;19;129311;-34
2022/11/30 02:49:57;;;;;;;51.35;5.82;;;;;;;21.49;63.32;99968.81;7308333;19;129717;-38
2022/11/30 02:52:25;;;;;;;61.55;6.40;;;;;;;21.51;63.79;99961.66;7309024;19;129226;-36
2022/11/30 02:54:52;;;;;;;66.22;7.13;;;;;;;21.43;63.28;99956.25;7305801;19;129409;-39
2022/11/30 02:57:17;;;;;;;;;;;;;;;21.50;65.03;99975.69;7309977;19;130225;-36
2022/11/30 02:59:43;;;;;;;48.53;6.37;;;;;;;21.46;63.66;99961.22;7306107;19;129737;-37
2022/11/30 03:02:08;;;;;;;49.80;5.28;;;;;;;21.51;64.29;99974.75;7308568;19;129500;-36
2022/11/30 03:04:33;;;;;;;51.35;5.95;;;;;;;21.52;64.27;99975.53;7307156;19;129463;-36
2022/11/30 03:06:59;;;;;;;54.87;6.47;;;;;;;21.45;63.33;99980.47;7306728;19;130287;-38
2022/11/30 03:09:24;;;;;;;54.17;6.50;;;;;;;21.50;63.83;99988.75;7308432;19;129851;-36
2022/11/30 03:11:50;;;;;;;57.90;6.10;;;;;;;21.48;63.46;99990.69;7304366;19;129899;-37
2022/11/30 03:14:15;;;;;;;32.13;4.32;;;;;;;21.49;63.95;99994.13;7306557;19;129152;-37
2022/11/30 03:16:42;;;;;;;75.95;6.97;;;;;;;21.52;64.09;99984.22;7305285;19;129145;-34
2022/11/30 03:19:08;;;;;;;37.22;4.88;;;;;;;21.50;64.10;99998.41;7308261;19;130383;-38
2022/11/30 03:21:34;;;;;;;67.50;7.05;;;;;;;21.51;64.24;100000.91;7305842;19;130483;-36
2022/11/30 03:23:59;;;;;;;70.47;7.93;;;;;;;21.54;63.53;99991.94;7306332;19;129880;-34
2022/11/30 03:26:24;;;;;;;47.63;5.53;;;;;;;21.52;64.49;99996.47;7305581;19;130215;-37
2022/11/30 03:28:50;;;;;;;44.38;5.18;;;;;;;21.46;63.70;99997.00;7306823;19;130493;-36
2022/11/30 03:31:15;;;;;;;39.95;4.90;;;;;;;21.40;63.50;99992.31;7308578;19;129726;-38
2022/11/30 03:33:41;;;;;;;61.78;6.45;;;;;;;21.48;63.26;100003.78;7304098;19;129070;-35
2022/11/30 03:36:09;;;;;;;39.35;5.03;;;;;;;21.30;62.87;99992.25;7306178;19;129157;-38
2022/11/30 03:38:35;;;;;;;49.63;5.93;;;;;;;21.26;63.06;99997.84;7306428;19;129615;-31
2022/11/30 03:41:04;;;;;;;43.53;5.20;;;;;;;21.40;62.28;99997.53;7307096;19;128819;-37
2022/11/30 03:43:30;;;;;;;43.65;5.43;;;;;;;21.69;61.89;99996.72;7305059;19;129171;-36
2022/11/30 03:45:55;;;;;;;48.65;5.43;;;;;;;21.91;60.91;99993.13;7305609;19;129261;-38
2022/11/30 03:48:21;;;;;;;45.28;5.03;;;;;;;22.19;60.41;99997.63;7307096;19;130242;-38
2022/11/30 03:50:48;;;;;;;50.58;5.38;;;;;;;22.41;59.33;100005.25;7306899;19;129010;-38
2022/11/30 03:53:18;;;;;;;44.80;5.32;;;;;;;22.55;58.95;99999.69;7305040;19;129471;-38
2022/11/30 03:55:44;;;;;;;64.45;6.20;;;;;;;22.69;58.82;100001.88;7303804;19;129733;-37
2022/11/30 03:58:09;;;;;;;44.35;4.90;;;;;;;22.77;58.65;99998.59;7307649;19;130671;-39
2022/11/30 04:00:35;;;;;;;44.83;4.97;;;;;;;22.91;58.44;100003.41;7307082;19;129623;-36
2022/11/30 04:03:01;;;;;;;37.37;4.50;;;;;;;23.00;57.66;99999.97;7305498;19;129322;-35
2022/11/30 04:05:26;;;;;;;56.85;5.80;;;;;;;23.02;57.79;99998.03;7304536;19;130215;-38
2022/11/30 04:07:51;;;;;;;55.67;5.88;;;;;;;23.03;58.01;99999.69;7306178;19;130228;-37
2022/11/30 04:10:17;;;;;;;53.30;5.63;;;;;;;23.07;57.39;99995.84;7306071;19;129040;-38
2022/11/30 04:12:42;;;;;;;55.13;5.53;;;;;;;23.09;57.99;99999.13;7306703;19;129994;-38
2022/11/30 04:15:08;;;;;;;31.70;4.20;;;;;;;23.13;57.16;99997.88;7303109;19;129720;-37
2022/11/30 04:17:33;;;;;;;56.75;5.85;;;;;;;23.10;57.44;100001.63;7303253;19;131767;-37
2022/11/30 04:19:58;;;;;;;33.60;4.35;;;;;;;23.08;57.58;99994.84;7306865;19;129782;-37
2022/11/30 04:22:24;;;;;;;44.70;5.00;;;;;;;23.07;57.78;99993.22;7308022;19;130209;-37
2022/11/30 04:24:49;;;;;;;52.27;5.93;;;;;;;22.97;57.97;99997.63;7308793;19;130272;-37
2022/11/30 04:27:15;;;;;;;63.23;6.10;;;;;;;22.89;58.00;100002.75;7313385;19;129593;-39
2022/11/30 04:29:40;;;;;;;52.57;5.27;;;;;;;22.85;58.67;100001.34;7312028;19;129173;-36
2022/11/30 04:32:05;;;;;;;35.37;4.33;;;;;;;22.75;58.70;100005.75;7312447;19;129525;-31
2022/11/30 04:34:31;;;;;;;47.83;5.10;;;;;;;22.53;59.08;99979.78;7309971;19;129336;-35
2022/11/30 04:36:56;;;;;;;46.78;5.72;;;;;;;22.57;59.14;99996.91;7311304;19;131178;-34
2022/11/30 04:39:21;;;;;;;56.13;5.30;;;;;;;22.49;59.30;100010.69;7313334;19;129089;-36
2022/11/30 04:41:47;;;;;;;44.63;5.03;;;;;;;22.41;60.10;100013.13;7312741;19;129141;-35
2022/11/30 04:44:12;;;;;;;44.30;4.82;;;;;;;22.34;60.32;100011.19;7311099;19;130269;-37
2022/11/30 04:46:37;;;;;;;81.38;7.65;;;;;;;22.26;59.96;100011.88;7310081;19;129046;-35
2022/11/30 04:49:03;;;;;;;44.53;5.30;;;;;;;22.18;60.24;100006.44;7312246;19;129190;-34
2022/11/30 04:51:28;;;;;;;57.15;6.10;;;;;;;22.13;60.51;100010.44;7309985;19;129826;-36
2022/11/30 04:53:54;;;;;;;73.97;7.37;;;;;;;22.00;61.41;100009.84;7309783;19;129550;-38
2022/11/30 04:56:19;;;;;;;21.45;3.88;;;;;;;21.94;61.40;100009.41;7311986;19;130557;-39
2022/11/30 04:58:44;;;;;;;48.10;5.18;;;;;;;21.83;61.22;100017.34;7312375;19;130316;-38
2022/11/30 05:01:10;;;;;;;59.90;6.53;;;;;;;21.80;61.96;100020.22;7308115;19;129758;-38
2022/11/30 05:03:35;;;;;;;56.70;5.80;;;;;;;21.76;61.84;100024.06;7307039;19;131152;-38
2022/11/30 05:06:01;;;;;;;42.30;5.07;;;;;;;21.71;62.45;100023.59;7309258;19;131091;-38
2022/11/30 05:08:26;;;;;;;53.15;5.60;;;;;;;21.55;62.26;100002.28;7311816;19;129750;-35
2022/11/30 05:10:52;;;;;;;30.98;4.15;;;;;;;21.62;62.71;100029.59;7310558;19;128939;-39
2022/11/30 05:13:18;;;;;;;71.27;6.90;;;;;;;21.47;62.69;100003.91;7308678;19;130250;-38
2022/11/30 05:15:44;;;;;;;58.22;6.28;;;;;;;21.45;62.56;100019.72;7307140;19;131411;-36
2022/11/30 05:18:10;;;;;;;38.30;4.88;;;;;;;21.51;62.45;100036.69;7310423;19;129539;-36
2022/11/30 05:20:35;;;;;;;48.70;5.57;;;;;;;21.46;62.92;100029.22;7309183;19;129500;-38
2022/11/30 05:23:00;;;;;;;47.33;5.10;;;;;;;21.43;63.19;100037.34;7310622;19;129111;-35
2022/11/30 05:25:26;;;;;;;61.63;6.77;;;;;;;21.41;62.86;100035.78;7305184;19;131052;-37
2022/11/30 05:27:51;;;;;;;27.80;4.20;;;;;;;21.38;62.88;100033.44;7305825;19;129858;-38
2022/11/30 05:30:17;;;;;;;55.13;5.67;;;;;;;21.36;62.74;100043.19;7310205;19;129364;-39
2022/11/30 05:32:42;;;;;;;60.15;5.88;;;;;;;21.32;63.39;100047.84;7311495;19;130172;-36
2022/11/30 05:35:08;;;;;;;51.55;5.95;;;;;;;21.34;63.12;100051.16;7302445;19;130116;-38
2022/11/30 05:37:34;;;;;;;40.63;4.80;;;;;;;21.35;62.86;100050.22;7309905;19;130484;-39
2022/11/30 05:39:59;;;;;;;68.43;7.33;;;;;;;21.34;62.88;100053.78;7309142;19;130101;-35
2022/11/30 05:42:25;;;;;;;45.45;5.15;;;;;;;21.34;63.80;100059.00;7309455;19;129753;-38
2022/11/30 05:44:51;;;;;;;38.10;5.05;;;;;;;21.36;63.65;100056.28;7304650;19;131006;-39
2022/11/30 05:47:16;;;;;;;39.60;4.53;;;;;;;21.32;63.14;100060.91;7309296;19;131473;-37
2022/11/30 05:49:42;;;;;;;95.27;9.17;;;;;;;21.33;63.85;100059.97;7308587;19;129327;-36
2022/11/30 05:52:07;;;;;;;49.20;5.18;;;;;;;21.32;63.38;100063.53;7309294;19;130989;-35
2022/11/30 05:54:33;;;;;;;45.25;5.53;;;;;;;21.30;62.86;100062.84;7306888;19;129694;-35
2022/11/30 05:56:58;;;;;;;24.37;3.90;;;;;;;21.31;63.46;100069.75;7308383;19;130438;-34
2022/11/30 05:59:24;;;;;;;63.53;6.28;;;;;;;21.28;62.86;100062.16;7309873;19;129128;-37
2022/11/30 06:01:52;;;;;;;71.25;7.43;;;;;;;21.30;63.56;100075.09;7309584;19;129734;-38
2022/11/30 06:04:18;;;;;;;57.30;6.18;;;;;;;21.29;62.98;100066.41;7305234;19;129802;-36
2022/11/30 06:06:43;;;;;;;44.58;5.13;;;;;;;21.30;63.15;100065.47;7306990;19;129826;-37
2022/11/30 06:09:08;;;;;;;64.22;6.45;;;;;;;21.37;63.38;100071.84;7309121;19;131470;-38
2022/11/30 06:11:34;;;;;;;41.20;5.03;;;;;;;21.32;62.78;100055.69;7307119;19;129164;-36
2022/11/30 06:13:59;;;;;;;57.15;6.38;;;;;;;21.53;62.69;100076.63;7305194;19;131467;-35
2022/11/30 06:16:24;;;;;;;62.47;6.10;;;;;;;21.60;62.43;100073.38;7307392;19;129539;-36
2022/11/30 06:18:50;;;;;;;74.10;7.55;;;;;;;21.72;62.38;100076.75;7305265;19;129480;-35
2022/11/30 06:21:15;;;;;;;52.17;5.77;;;;;;;21.70;61.45;100058.56;7301844;19;132662;-35
2022/11/30 06:23:40;;;;;;;68.38;6.97;;;;;;;21.86;61.38;100079.91;7301315;19;129540;-34
2022/11/30 06:26:09;;;;;;;38.42;4.65;;;;;;;21.97;61.44;100071.13;7308138;19;129549;-39
2022/11/30 06:28:35;;;;;;;65.78;6.43;;;;;;;22.08;61.09;100078.09;7308401;19;130406;-37
2022/11/30 06:31:02;;;;;;;38.13;4.87;;;;;;;22.11;60.72;100072.59;7308320;19;130141;-35
2022/11/30 06:33:28;;;;;;;59.70;6.38;;;;;;;22.13;61.02;100078.53;7305155;19;129449;-37
2022/11/30 06:35:54;;;;;;;59.30;6.25;;;;;;;22.17;60.98;100072.88;7304019;19;129117;-33
2022/11/30 06:38:19;;;;;;;64.82;6.80;;;;;;;22.17;60.83;100077.28;7306662;19;129087;-36
2022/11/30 06:40:45;;;;;;;48.70;5.47;;;;;;;22.20;60.25;100082.25;7306905;19;130173;-36
2022/11/30 06:43:10;;;;;;;41.42;4.72;;;;;;;22.16;60.36;100078.25;7305671;19;129612;-37
2022/11/30 06:45:37;;;;;;;73.10;7.23;;;;;;;22.13;60.75;100086.38;7305554;19;129526;-34
2022/11/30 06:48:03;;;;;;;;;;;;;;;22.06;60.70;100088.69;7304964;19;130058;-38
2022/11/30 06:50:28;;;;;;;68.68;6.80;;;;;;;22.03;61.30;100088.97;7305132;19;129629;-35
2022/11/30 06:52:55;;;;;;;42.53;5.05;;;;;;;22.02;60.83;100084.66;7305674;19;131307;-39
2022/11/30 06:55:20;;;;;;;;;;;;;;;21.87;61.18;100065.03;7304672;19;129762;-36
2022/11/30 06:57:46;;;;;;;44.08;4.82;;;;;;;21.98;60.93;100095.53;7306757;19;129313;-38
2022/11/30 07:00:12;;;;;;;48.23;5.27;;;;;;;21.96;61.67;100096.47;7304449;19;129727;-37
2022/11/30 07:02:37;;;;;;;60.40;6.10;;;;;;;21.93;61.59;100096.75;7302482;19;130206;-37
2022/11/30 07:05:03;;;;;;;54.10;5.82;;;;;;;21.87;61.60;100105.13;7306356;19;129308;-34
2022/11/30 07:07:29;;;;;;;26.05;3.85;;;;;;;21.85;61.90;100104.41;7308341;19;129246;-38
2022/11/30 07:09:54;;;;;;;38.63;5.03;;;;;;;21.81;62.00;100108.28;7304030;19;130996;-38
2022/11/30 07:12:20;;;;;;;35.00;4.30;;;;;;;21.79;61.57;100107.56;7307320;19;129760;-35
2022/11/30 07:14:45;;;;;;;76.85;7.25;;;;;;;21.75;61.83;100108.72;7304105;19;129045;-38
2022/11/30 07:17:11;;;;;;;40.08;4.93;;;;;;;21.64;62.10;100095.72;7305435;19;129290;-35
2022/11/30 07:19:36;;;;;;;33.67;4.20;;;;;;;21.71;62.47;100123.03;7307671;19;130034;-37
2022/11/30 07:22:01;;;;;;;52.50;5.68;;;;;;;21.69;61.87;100118.88;7308010;19;130371;-37
2022/11/30 07:27:11;;;;;;;45.67;4.78;;;;;;;21.62;62.28;100123.78;7307986;19;130142;-35
2022/11/30 07:29:36;;;;;;;44.28;5.47;;;;;;;21.60;62.41;100123.09;7303237;19;130057;-38
2022/11/30 07:32:02;;;;;;;40.30;4.72;;;;;;;21.58;62.45;100132.03;7304888;19;130144;-38
2022/11/30 07:34:27;;;;;;;62.05;6.32;;;;;;;21.53;62.82;100129.81;7301857;19;130231;-38
2022/11/30 07:36:53;;;;;;;39.03;4.43;;;;;;;21.49;62.45;100123.16;7306287;19;129634;-36
2022/11/30 07:39:18;;;;;;;37.72;4.28;;;;;;;21.39;62.61;100114.41;7308787;19;129822;-38
2022/11/30 07:41:44;;;;;;;82.07;8.20;;;;;;;21.49;62.72;100124.94;7305015;19;129567;-38
2022/11/30 07:44:12;;;;;;;56.75;5.80;;;;;;;21.45;62.84;100129.56;7305346;19;129175;-36
2022/11/30 07:46:38;;;;;;;75.50;7.25;;;;;;;21.47;63.30;100129.47;7303201;19;129228;-36
2022/11/30 07:49:05;;;;;;;26.75;3.80;;;;;;;21.44;62.82;100130.53;7305372;19;130954;-39
2022/11/30 07:51:31;;;;;;;36.28;4.22;;;;;;;21.43;63.19;100128.06;7306300;19;130517;-35
2022/11/30 07:53:57;;;;;;;84.10;8.40;;;;;;;21.41;63.03;100133.41;7301953;19;129758;-33
2022/11/30 07:56:23;;;;;;;38.13;4.47;;;;;;;21.42;62.75;100137.69;7301461;19;129262;-36
2022/11/30 07:58:50;;;;;;;41.73;4.83;;;;;;;21.39;62.95;100130.09;7306130;19;130066;-37
2022/11/30 08:01:20;;;;;;;54.47;5.47;;;;;;;21.40;62.76;100134.34;7303753;19;130341;-36
2022/11/30 08:03:45;;;;;;;43.95;5.28;;;;;;;21.43;61.38;100134.13;7309706;19;129586;-39
2022/11/30 08:06:13;;;;;;;41.47;5.90;;;;;;;21.39;60.11;100135.31;7312332;19;129202;-38
2022/11/30 08:08:41;;;;;;;51.83;7.35;;;;;;;21.37;60.16;100134.59;7309259;19;129856;-36
2022/11/30 08:11:09;;;;;;;24.92;5.05;;;;;;;21.35;60.18;100128.69;7311731;19;129499;-40
2022/11/30 08:13:35;;;;;;;52.08;7.10;;;;;;;21.31;59.81;100140.34;7308544;19;129877;-38
2022/11/30 08:16:05;;;;;;;24.33;5.85;;;;;;;21.33;59.66;100133.22;7308232;19;130007;-37
2022/11/30 08:18:30;;;;;;;28.02;5.90;;;;;;;21.35;59.43;100136.53;7311472;19;130862;-38
2022/11/30 08:20:58;;;;;;;23.40;5.20;;;;;;;21.36;59.39;100127.72;7313127;19;130344;-38
2022/11/30 08:23:24;;;;;;;25.45;5.30;;;;;;;21.39;59.65;100142.31;7310066;19;130538;-37
2022/11/30 08:25:50;;;;;;;29.73;5.63;;;;;;;21.33;59.84;100117.53;7311078;19;128958;-36
2022/11/30 08:28:15;;;;;;;28.85;5.40;;;;;;;21.45;59.40;100136.63;7312422;19;129628;-36
2022/11/30 08:30:40;;;;;;;40.90;6.57;;;;;;;21.45;59.61;100142.66;7310981;19;129800;-38
2022/11/30 08:33:06;;;;;;;28.27;5.13;;;;;;;21.46;59.64;100143.50;7309988;19;128998;-37
2022/11/30 08:35:31;;;;;;;29.67;5.82;;;;;;;21.51;58.72;100144.78;7309435;19;129138;-38
2022/11/30 08:37:57;;;;;;;20.40;5.27;;;;;;;21.54;58.62;100141.91;7312433;19;131247;-40
2022/11/30 08:40:22;;;;;;;18.30;4.47;;;;;;;21.64;58.63;100150.66;7309054;19;129447;-36
2022/11/30 08:42:47;;;;;;;43.15;6.45;;;;;;;21.72;58.36;100155.25;7310488;19;128807;-36
2022/11/30 08:45:13;;;;;;;24.70;5.13;;;;;;;21.75;58.11;100155.84;7309087;19;129942;-38
2022/11/30 08:47:38;;;;;;;23.07;5.37;;;;;;;21.88;58.12;100153.88;7310842;19;130330;-38
2022/11/30 08:50:04;;;;;;;23.40;5.67;;;;;;;22.01;57.41;100155.50;7311261;19;129058;-37
2022/11/30 08:52:29;;;;;;;33.07;5.67;;;;;;;22.06;57.34;100155.94;7310001;19;130017;-38
2022/11/30 08:54:54;;;;;;;23.90;4.97;;;;;;;22.19;57.11;100153.94;7308289;19;128918;-34
2022/11/30 08:57:20;;;;;;;25.65;5.07;;;;;;;22.20;56.47;100156.44;7311058;19;130082;-36
2022/11/30 08:59:46;;;;;;;44.33;6.47;;;;;;;22.14;56.56;100143.88;7311043;19;130535;-38
2022/11/30 09:02:16;;;;;;;30.00;6.00;;;;;;;22.21;57.22;100157.25;7311094;19;128989;-35
2022/11/30 09:04:41;;;;;;;15.25;4.70;;;;;;;22.08;57.01;100146.16;7308470;19;129705;-36
2022/11/30 09:07:08;;;;;;;29.33;5.78;;;;;;;22.15;56.98;100168.28;7310202;19;129512;-36
2022/11/30 09:09:34;;;;;;;37.00;6.32;;;;;;;22.13;57.31;100171.00;7310475;19;130860;-38
2022/11/30 09:11:59;;;;;;;43.20;6.73;;;;;;;22.01;56.90;100152.88;7317864;19;129044;-37
2022/11/30 09:14:25;;;;;;;21.92;4.93;;;;;;;22.09;57.12;100166.16;7314892;19;128958;-38
2022/11/30 09:16:52;;;;;;;21.13;5.22;;;;;;;22.01;57.14;100151.09;7318047;19;130102;-37
2022/11/30 09:19:17;;;;;;;42.78;7.05;;;;;;;22.14;56.91;100166.59;7317714;19;130762;-37
2022/11/30 09:21:42;;;;;;;30.75;5.85;;;;;;;22.16;57.48;100165.53;7317743;19;129415;-36
2022/11/30 09:24:09;;;;;;;28.83;5.40;;;;;;;22.21;57.21;100175.59;7314929;19;129054;-34
2022/11/30 09:26:34;;;;;;;28.30;6.17;;;;;;;22.28;56.74;100169.69;7314733;19;129047;-37
2022/11/30 09:28:59;;;;;;;28.65;5.15;;;;;;;22.30;55.87;100166.94;7317010;19;129497;-37
2022/11/30 09:31:25;;;;;;;18.93;5.20;;;;;;;22.31;56.17;100174.72;7313102;19;129153;-38
2022/11/30 09:33:52;;;;;;;30.88;5.57;;;;;;;22.25;56.38;100169.13;7313589;19;129723;-39
2022/11/30 09:36:20;;;;;;;23.90;5.15;;;;;;;22.25;56.21;100163.88;7314541;19;130375;-37
2022/11/30 09:38:46;;;;;;;28.35;5.55;;;;;;;22.24;56.43;100167.47;7314756;19;131093;-35
2022/11/30 09:41:23;;;;;;;36.30;6.13;;;;;;;22.16;56.30;100164.69;7317543;19;129283;-37
2022/11/30 09:44:06;;;;;;;18.92;4.93;;;;;;;22.14;56.52;100171.84;7313962;19;130478;-37
2022/11/30 09:46:52;;;;;;;20.38;4.80;;;;;;;22.07;57.27;100173.28;7316570;19;128961;-38
2022/11/30 09:49:29;;;;;;;23.15;4.88;;;;;;;21.93;56.68;100156.16;7315790;19;130352;-35
2022/11/30 09:51:58;;;;;;;29.63;5.83;;;;;;;22.02;57.51;100172.84;7316709;19;128965;-35
2022/11/30 09:54:35;;;;;;;30.52;5.75;;;;;;;22.02;56.98;100173.69;7312434;19;129026;-35
2022/11/30 09:57:23;;;;;;;22.07;4.90;;;;;;;22.02;56.97;100167.63;7315906;19;130227;-36
2022/11/30 09:59:54;;;;;;;39.78;6.43;;;;;;;22.03;57.08;100164.06;7315863;19;131055;-34
2022/11/30 10:02:22;;;;;;;26.08;4.88;;;;;;;22.09;56.91;100168.78;7316235;19;129126;-34
2022/11/30 10:04:48;;;;;;;27.33;5.55;;;;;;;22.12;56.70;100164.09;7311525;19;130720;-38
2022/11/30 10:07:54;;;;;;;13.82;4.57;;;;;;;22.02;56.99;100149.28;7316622;19;129382;-35
2022/11/30 10:10:34;;;;;;;35.53;6.40;;;;;;;22.08;56.85;100164.50;7316634;19;130122;-35
2022/11/30 10:13:35;;;;;;;43.08;6.47;;;;;;;22.06;56.61;100162.00;7314485;19;128960;-35
2022/11/30 10:16:19;;;;;;;29.65;5.60;;;;;;;22.02;57.44;100170.22;7313541;19;129370;-34
2022/11/30 10:18:53;;;;;;;11.98;4.78;;;;;;;21.94;57.22;100166.50;7314745;19;129244;-33
2022/11/30 10:21:41;;;;;;;24.25;5.32;;;;;;;21.91;57.20;100161.47;7314704;19;130271;-38
2022/11/30 10:24:06;;;;;;;;;;;;;;;21.88;57.69;100163.56;7313391;19;129591;-37
2022/11/30 10:26:34;;;;;;;20.27;5.10;;;;;;;21.89;57.18;100178.28;7311420;19;130352;-37
2022/11/30 10:29:26;;;;;;;37.95;6.32;;;;;;;21.87;58.08;100173.19;7315006;19;130412;-39
2022/11/30 10:31:56;;;;;;;32.80;6.00;;;;;;;21.86;57.38;100168.91;7312813;19;130252;-39
2022/11/30 10:34:36;;;;;;;41.17;6.20;;;;;;;21.91;57.50;100171.97;7311794;19;131440;-38
2022/11/30 10:37:13;;;;;;;41.97;6.45;;;;;;;21.95;57.17;100162.06;7312850;19;128946;-37
2022/11/30 10:39:50;;;;;;;27.02;5.25;;;;;;;22.01;56.88;100160.72;7314967;19;130167;-35
2022/11/30 10:42:25;;;;;;;25.73;4.75;;;;;;;22.05;57.34;100170.00;7314259;19;130243;-36
2022/11/30 10:45:16;;;;;;;23.50;5.05;;;;;;;22.03;56.72;100164.06;7310916;19;130814;-35
2022/11/30 10:48:02;;;;;;;37.17;6.40;;;;;;;22.01;56.99;100160.72;7312807;19;128889;-37
2022/11/30 10:50:29;;;;;;;24.45;5.15;;;;;;;22.00;56.72;100169.56;7314116;19;129523;-39
2022/11/30 10:52:57;;;;;;;25.67;5.07;;;;;;;21.98;57.50;100161.00;7313322;19;129174;-37
2022/11/30 10:55:27;;;;;;;30.90;5.95;;;;;;;21.93;56.77;100164.81;7312396;19;128853;-39
2022/11/30 10:58:12;;;;;;;22.25;4.90;;;;;;;21.88;57.28;100171.41;7314553;19;129354;-36
2022/11/30 11:00:37;;;;;;;31.52;6.03;;;;;;;21.73;56.94;100144.66;7314721;19;130138;-38
2022/11/30 11:03:22;;;;;;;21.83;5.18;;;;;;;21.84;57.67;100165.59;7314307;19;130160;-38
2022/11/30 11:06:02;;;;;;;37.40;6.15;;;;;;;21.85;57.71;100167.25;7314107;19;129124;-36
2022/11/30 11:08:27;;;;;;;27.48;5.60;;;;;;;21.76;57.77;100149.69;7314534;19;128794;-38
2022/11/30 11:10:53;;;;;;;51.58;8.90;;;;;;;21.78;51.83;100166.09;7313427;19;130123;-37
2022/11/30 11:13:33;;;;;;;36.00;10.53;;;;;;;21.73;47.65;100162.97;7313868;19;130365;-36
2022/11/30 11:16:00;;;;;;;37.28;9.27;;;;;;;21.78;48.27;100160.84;7311417;19;129696;-37
2022/11/30 11:18:30;;;;;;;;;;;;;;;21.79;50.08;100161.69;7314916;19;128839;-34
2022/11/30 11:20:59;;;;;;;33.33;8.57;;;;;;;21.83;52.19;100163.91;7313180;19;129099;-34